createdAt,value
2018-05-09T00:02:51.339Z,4.47
2018-05-09T00:05:56.253Z,4.47
2018-05-09T00:08:59.610Z,4.73
2018-05-09T00:12:02.934Z,5.37
2018-05-09T00:15:06.285Z,4.47
2018-05-09T00:18:10.361Z,4.90
2018-05-09T00:21:13.749Z,4.63
2018-05-09T00:24:17.179Z,5.30
2018-05-09T00:27:20.553Z,5.10
2018-05-09T00:30:23.874Z,4.77
2018-05-09T00:33:27.986Z,5.43
2018-05-09T00:36:31.311Z,5.17
2018-05-09T00:39:34.670Z,5.33
2018-05-09T00:42:37.996Z,5.60
2018-05-09T00:45:41.339Z,6.23
2018-05-09T00:48:44.744Z,5.23
2018-05-09T00:51:48.148Z,5.40
2018-05-09T00:54:51.458Z,6.10
2018-05-09T00:57:54.799Z,5.87
2018-05-09T01:00:58.134Z,6.03
2018-05-09T01:04:01.550Z,6.20
2018-05-09T01:07:04.946Z,6.03
2018-05-09T01:10:08.309Z,6.33
2018-05-09T01:13:11.641Z,6.47
2018-05-09T01:16:14.990Z,7.60
2018-05-09T01:19:18.305Z,6.30
2018-05-09T01:22:21.713Z,7.10
2018-05-09T01:25:25.021Z,7.60
2018-05-09T01:28:29.213Z,7.43
2018-05-09T01:31:32.533Z,8.90
2018-05-09T01:34:35.898Z,9.83
2018-05-09T01:37:39.224Z,9.10
2018-05-09T01:40:42.717Z,10.20
2018-05-09T01:43:46.040Z,10.80
2018-05-09T01:46:50.138Z,10.63
2018-05-09T01:49:53.468Z,11.60
2018-05-09T01:52:56.801Z,12.47
2018-05-09T01:56:00.206Z,11.63
2018-05-09T01:59:03.555Z,12.90
2018-05-09T02:02:06.891Z,13.23
2018-05-09T02:05:10.281Z,12.90
2018-05-09T02:08:13.686Z,12.97
2018-05-09T02:11:17.101Z,15.20
2018-05-09T02:14:20.426Z,14.97
2018-05-09T02:17:24.525Z,13.90
2018-05-09T02:20:27.850Z,15.70
2018-05-09T02:23:31.182Z,16.27
2018-05-09T02:26:34.506Z,16.23
2018-05-09T02:29:38.163Z,16.23
2018-05-09T02:32:41.493Z,16.33
2018-05-09T02:35:44.837Z,17.00
2018-05-09T02:38:48.189Z,16.17
2018-05-09T02:41:51.584Z,17.23
2018-05-09T02:44:54.903Z,16.53
2018-05-09T02:47:59.014Z,16.87
2018-05-09T02:51:02.334Z,17.53
2018-05-09T02:54:05.787Z,18.60
2018-05-09T02:57:09.107Z,16.97
2018-05-09T03:00:13.298Z,18.70
2018-05-09T03:03:16.615Z,17.63
2018-05-09T03:06:19.981Z,18.80
2018-05-09T03:09:23.385Z,17.23
2018-05-09T03:12:26.777Z,17.90
2018-05-09T03:15:30.095Z,18.43
2018-05-09T03:18:33.473Z,17.33
2018-05-09T03:21:36.777Z,18.53
2018-05-09T03:24:40.161Z,17.93
2018-05-09T03:27:43.477Z,17.30
2018-05-09T03:30:46.822Z,17.83
2018-05-09T03:33:50.142Z,18.20
2018-05-09T03:36:53.485Z,18.40
2018-05-09T03:39:57.569Z,18.43
2018-05-09T03:43:00.969Z,16.50
2018-05-09T03:46:04.302Z,17.33
2018-05-09T03:49:08.409Z,15.87
2018-05-09T03:52:12.484Z,14.13
2018-05-09T03:55:15.824Z,14.80
2018-05-09T03:58:19.896Z,14.53
2018-05-09T04:01:23.255Z,14.43
2018-05-09T04:08:26.226Z,12.23
2018-05-09T04:11:29.614Z,12.57
2018-05-09T04:14:32.957Z,12.93
2018-05-09T04:17:37.037Z,11.97
2018-05-09T04:20:40.425Z,11.33
2018-05-09T04:23:43.723Z,11.90
2018-05-09T04:26:47.089Z,11.27
2018-05-09T04:29:50.508Z,10.90
2018-05-09T04:32:53.867Z,11.20
2018-05-09T04:35:57.206Z,10.50
2018-05-09T04:39:00.619Z,10.70
2018-05-09T04:42:03.981Z,10.77
2018-05-09T04:45:07.288Z,11.23
2018-05-09T04:48:10.686Z,10.63
2018-05-09T04:51:14.089Z,11.53
2018-05-09T04:54:17.412Z,11.07
2018-05-09T04:57:20.777Z,10.97
2018-05-09T05:00:24.189Z,10.27
2018-05-09T05:03:27.540Z,11.67
2018-05-09T05:06:30.882Z,9.73
2018-05-09T05:09:34.218Z,10.33
2018-05-09T05:12:38.314Z,11.00
2018-05-09T05:15:41.696Z,9.80
2018-05-09T05:18:45.081Z,10.17
2018-05-09T05:21:48.438Z,9.37
2018-05-09T05:24:51.774Z,10.67
2018-05-09T05:27:55.177Z,9.20
2018-05-09T05:30:58.559Z,9.23
2018-05-09T05:34:01.981Z,8.63
2018-05-09T05:37:05.396Z,8.80
2018-05-09T05:40:08.775Z,8.37
2018-05-09T05:43:12.118Z,8.57
2018-05-09T05:46:16.239Z,8.20
2018-05-09T05:49:19.558Z,8.13
2018-05-09T05:52:23.026Z,8.73
2018-05-09T05:55:27.126Z,8.27
2018-05-09T05:58:30.479Z,7.70
2018-05-09T06:01:33.793Z,8.00
2018-05-09T06:04:37.130Z,8.83
2018-05-09T06:07:41.302Z,8.00
2018-05-09T06:10:45.314Z,8.07
2018-05-09T06:13:48.621Z,8.57
2018-05-09T06:16:52.021Z,7.90
2018-05-09T06:19:55.417Z,7.93
2018-05-09T06:22:58.763Z,7.90
2018-05-09T06:26:02.841Z,8.17
2018-05-09T06:29:06.191Z,8.30
2018-05-09T06:32:09.513Z,7.60
2018-05-09T06:35:12.877Z,8.20
2018-05-09T06:38:16.213Z,8.03
2018-05-09T06:41:19.560Z,8.60
2018-05-09T06:44:23.738Z,8.27
2018-05-09T06:47:27.143Z,7.77
2018-05-09T06:50:30.550Z,8.20
2018-05-09T06:53:33.933Z,8.60
2018-05-09T06:56:37.253Z,7.30
2018-05-09T06:59:40.743Z,7.57
2018-05-09T07:02:44.059Z,7.73
2018-05-09T07:05:47.406Z,7.50
2018-05-09T07:08:50.739Z,7.67
2018-05-09T07:11:54.113Z,7.20
2018-05-09T07:14:57.523Z,6.47
2018-05-09T07:18:00.930Z,7.07
2018-05-09T07:21:04.325Z,6.77
2018-05-09T07:24:07.660Z,7.00
2018-05-09T07:27:11.022Z,8.20
2018-05-09T07:30:14.418Z,7.93
2018-05-09T07:33:17.715Z,7.90
2018-05-09T07:36:21.112Z,7.90
2018-05-09T07:39:24.517Z,7.37
2018-05-09T07:42:27.852Z,7.97
2018-05-09T07:45:35.714Z,8.20
2018-05-09T07:48:39.112Z,7.40
2018-05-09T07:51:42.425Z,7.73
2018-05-09T07:54:45.768Z,7.37
2018-05-09T07:57:49.086Z,7.53
2018-05-09T08:00:52.501Z,6.97
2018-05-09T08:03:55.894Z,7.70
2018-05-09T08:06:59.298Z,8.00
2018-05-09T08:10:02.621Z,7.57
2018-05-09T08:13:06.726Z,7.50
2018-05-09T08:16:10.105Z,7.40
2018-05-09T08:19:13.502Z,7.43
2018-05-09T08:22:16.900Z,8.07
2018-05-09T08:25:20.329Z,7.97
2018-05-09T08:28:23.658Z,8.27
2018-05-09T08:31:27.085Z,8.13
2018-05-09T08:34:30.409Z,8.70
2018-05-09T08:37:34.517Z,8.87
2018-05-09T08:40:38.412Z,8.13
2018-05-09T08:43:41.906Z,8.50
2018-05-09T08:46:45.934Z,7.70
2018-05-09T08:49:49.324Z,8.13
2018-05-09T08:52:52.625Z,8.20
2018-05-09T08:55:56.010Z,8.03
2018-05-09T08:58:59.795Z,9.00
2018-05-09T09:02:03.276Z,8.90
2018-05-09T09:05:07.367Z,8.90
2018-05-09T09:08:10.750Z,8.10
2018-05-09T09:11:14.168Z,9.23
2018-05-09T09:14:17.533Z,8.13
2018-05-09T09:17:20.898Z,9.70
2018-05-09T09:20:24.325Z,9.67
2018-05-09T09:23:27.628Z,8.83
2018-05-09T09:26:31.017Z,8.80
2018-05-09T09:29:34.335Z,9.03
2018-05-09T09:32:37.716Z,9.07
2018-05-09T09:35:41.038Z,9.10
2018-05-09T09:38:44.391Z,9.57
2018-05-09T09:41:47.714Z,9.77
2018-05-09T09:44:51.064Z,10.03
2018-05-09T09:47:54.419Z,10.40
2018-05-09T09:50:57.762Z,10.70
2018-05-09T09:54:01.079Z,10.77
2018-05-09T09:57:04.443Z,11.53
2018-05-09T10:00:08.532Z,10.73
2018-05-09T10:03:11.922Z,10.83
2018-05-09T10:06:15.320Z,10.43
2018-05-09T10:09:18.693Z,10.67
2018-05-09T10:12:22.018Z,10.87
2018-05-09T10:15:25.385Z,10.50
2018-05-09T10:18:28.796Z,11.03
2018-05-09T10:21:32.143Z,10.73
2018-05-09T10:24:35.486Z,10.77
2018-05-09T10:27:38.824Z,10.67
2018-05-09T10:30:42.912Z,11.80
2018-05-09T10:33:46.270Z,11.80
2018-05-09T10:36:49.698Z,12.03
2018-05-09T10:39:53.094Z,11.30
2018-05-09T10:42:56.497Z,11.20
2018-05-09T10:45:59.843Z,11.67
2018-05-09T10:49:03.157Z,11.87
2018-05-09T10:52:06.521Z,11.77
2018-05-09T10:55:10.607Z,11.97
2018-05-09T10:58:13.984Z,12.50
2018-05-09T11:01:17.317Z,12.80
2018-05-09T11:04:21.435Z,12.67
2018-05-09T11:07:25.674Z,12.50
2018-05-09T11:10:29.159Z,12.30
2018-05-09T11:13:32.466Z,12.53
2018-05-09T11:16:35.802Z,13.20
2018-05-09T11:19:39.210Z,13.03
2018-05-09T11:22:42.556Z,12.90
2018-05-09T11:25:45.893Z,13.90
2018-05-09T11:28:49.470Z,14.20
2018-05-09T11:31:52.805Z,13.80
2018-05-09T11:34:56.156Z,14.17
2018-05-09T11:37:59.470Z,14.80
2018-05-09T11:41:02.826Z,14.13
2018-05-09T11:44:06.914Z,14.83
2018-05-09T11:47:10.264Z,15.00
2018-05-09T11:50:13.611Z,14.43
2018-05-09T11:53:17.043Z,14.03
2018-05-09T11:56:20.393Z,14.27
2018-05-09T11:59:23.784Z,14.17
2018-05-09T12:02:27.129Z,13.07
2018-05-09T12:05:31.297Z,13.33
2018-05-09T12:08:34.706Z,14.70
2018-05-09T12:11:38.051Z,14.43
2018-05-09T12:14:41.372Z,14.47
2018-05-09T12:17:44.722Z,14.83
2018-05-09T12:20:48.799Z,15.53
2018-05-09T12:23:52.169Z,14.90
2018-05-09T12:26:55.495Z,14.90
2018-05-09T12:29:58.993Z,15.47
2018-05-09T12:33:02.313Z,15.33
2018-05-09T12:36:07.213Z,14.60
2018-05-09T12:39:10.555Z,14.20
2018-05-09T12:42:14.733Z,14.70
2018-05-09T12:45:18.061Z,15.07
2018-05-09T12:48:22.177Z,14.73
2018-05-09T12:51:26.256Z,14.10
2018-05-09T12:54:29.622Z,14.17
2018-05-09T12:57:32.968Z,15.53
2018-05-09T13:00:36.323Z,14.57
2018-05-09T13:03:39.650Z,15.90
2018-05-09T13:06:43.101Z,14.90
2018-05-09T13:09:46.441Z,15.33
2018-05-09T13:12:49.798Z,15.13
2018-05-09T13:15:53.142Z,14.97
2018-05-09T13:18:56.496Z,13.80
2018-05-09T13:21:59.847Z,15.20
2018-05-09T13:25:03.194Z,14.87
2018-05-09T13:28:06.531Z,13.53
2018-05-09T13:31:09.906Z,14.17
2018-05-09T13:34:13.255Z,13.53
2018-05-09T13:37:17.368Z,12.83
2018-05-09T13:40:21.468Z,13.40
2018-05-09T13:43:24.884Z,11.33
2018-05-09T13:46:28.970Z,11.13
2018-05-09T13:49:32.370Z,10.57
2018-05-09T13:52:35.698Z,10.43
2018-05-09T13:55:39.834Z,10.17
2018-05-09T13:58:43.177Z,8.93
2018-05-09T14:01:46.562Z,9.40
2018-05-09T14:04:49.970Z,14.83
2018-05-09T14:07:53.375Z,9.17
2018-05-09T14:10:56.680Z,8.70
2018-05-09T14:14:00.061Z,8.77
2018-05-09T14:17:03.365Z,8.70
2018-05-09T14:20:06.711Z,8.67
2018-05-09T14:23:10.054Z,7.93
2018-05-09T14:26:13.397Z,8.40
2018-05-09T14:29:16.748Z,8.87
2018-05-09T14:32:20.155Z,8.53
2018-05-09T14:35:23.529Z,8.93
2018-05-09T14:38:26.942Z,8.67
2018-05-09T14:41:30.264Z,8.27
2018-05-09T14:44:34.455Z,7.73
2018-05-09T14:47:37.771Z,7.13
2018-05-09T14:50:41.104Z,7.47
2018-05-09T14:53:44.428Z,7.47
2018-05-09T14:56:47.835Z,7.30
2018-05-09T14:59:51.234Z,7.43
2018-05-09T15:02:54.843Z,7.00
2018-05-09T15:05:58.148Z,6.47
2018-05-09T15:09:01.534Z,6.40
2018-05-09T15:12:04.881Z,5.73
2018-05-09T15:15:08.230Z,5.57
2018-05-09T15:18:11.626Z,3.80
2018-05-09T15:21:14.975Z,4.47
2018-05-09T15:24:18.284Z,4.10
2018-05-09T15:27:21.617Z,3.93
2018-05-09T15:30:25.016Z,4.23
2018-05-09T15:33:28.461Z,4.13
2018-05-09T15:36:31.785Z,3.50
2018-05-09T15:39:35.116Z,3.40
2018-05-09T15:42:38.494Z,3.47
2018-05-09T15:45:41.885Z,3.27
2018-05-09T15:48:45.298Z,3.60
2018-05-09T15:51:48.689Z,3.30
2018-05-09T15:54:52.085Z,3.40
2018-05-09T15:57:55.486Z,3.43
2018-05-09T16:00:58.793Z,3.57
2018-05-09T16:04:02.144Z,3.83
2018-05-09T16:07:05.480Z,3.53
2018-05-09T16:10:08.870Z,3.50
2018-05-09T16:13:12.197Z,3.90
2018-05-09T16:16:15.568Z,3.77
2018-05-09T16:19:18.881Z,3.70
2018-05-09T16:22:23.079Z,3.90
2018-05-09T16:25:27.054Z,3.27
2018-05-09T16:28:30.407Z,3.50
2018-05-09T16:31:33.778Z,3.57
2018-05-09T16:34:37.114Z,3.47
2018-05-09T16:37:41.206Z,3.53
2018-05-09T16:40:44.597Z,3.70
2018-05-09T16:43:48.014Z,3.60
2018-05-09T16:46:51.387Z,3.70
2018-05-09T16:49:54.795Z,3.30
2018-05-09T16:52:58.185Z,3.30
2018-05-09T16:56:01.506Z,3.50
2018-05-09T16:59:05.626Z,3.10
2018-05-09T17:02:09.827Z,2.77
2018-05-09T17:05:13.179Z,2.73
2018-05-09T17:08:16.498Z,2.73
2018-05-09T17:11:19.860Z,3.00
2018-05-09T17:14:23.198Z,2.90
2018-05-09T17:17:26.586Z,2.13
2018-05-09T17:20:29.896Z,2.57
2018-05-09T17:23:33.287Z,2.63
2018-05-09T17:26:36.676Z,2.53
2018-05-09T17:29:40.088Z,2.13
2018-05-09T17:32:43.483Z,2.13
2018-05-09T17:35:46.818Z,2.07
2018-05-09T17:38:51.008Z,2.00
2018-05-09T17:41:55.217Z,2.47
2018-05-09T17:44:58.533Z,2.57
2018-05-09T17:48:02.639Z,2.60
2018-05-09T17:51:06.041Z,2.20
2018-05-09T17:54:10.144Z,2.43
2018-05-09T17:57:13.527Z,2.67
2018-05-09T18:00:16.879Z,2.40
2018-05-09T18:03:20.206Z,2.53
2018-05-09T18:06:23.614Z,2.20
2018-05-09T18:09:26.932Z,2.80
2018-05-09T18:12:30.346Z,2.43
2018-05-09T18:15:33.696Z,2.33
2018-05-09T18:18:37.050Z,2.87
2018-05-09T18:21:40.403Z,3.00
2018-05-09T18:24:43.800Z,2.80
2018-05-09T18:27:47.206Z,2.40
2018-05-09T18:30:50.542Z,2.90
2018-05-09T18:33:53.872Z,3.07
2018-05-09T18:36:57.218Z,2.77
2018-05-09T18:40:01.435Z,3.00
2018-05-09T18:43:05.558Z,2.53
2018-05-09T18:46:08.893Z,2.90
2018-05-09T18:49:12.237Z,2.90
2018-05-09T18:52:16.308Z,3.03
2018-05-09T18:55:19.731Z,3.47
2018-05-09T18:58:23.064Z,3.30
2018-05-09T19:01:26.529Z,3.10
2018-05-09T19:04:29.844Z,3.00
2018-05-09T19:07:33.945Z,2.87
2018-05-09T19:10:37.261Z,2.60
2018-05-09T19:13:40.734Z,3.20
2018-05-09T19:16:44.054Z,3.10
2018-05-09T19:19:48.157Z,3.43
2018-05-09T19:22:52.246Z,3.00
2018-05-09T19:25:55.654Z,3.20
2018-05-09T19:28:58.985Z,3.40
2018-05-09T19:32:02.323Z,2.80
2018-05-09T19:35:05.722Z,2.93
2018-05-09T19:38:09.070Z,2.80
2018-05-09T19:41:13.171Z,2.50
2018-05-09T19:44:17.292Z,2.90
2018-05-09T19:47:21.359Z,2.80
2018-05-09T19:50:24.714Z,3.27
2018-05-09T19:53:28.033Z,3.00
2018-05-09T19:56:31.370Z,2.87
2018-05-09T19:59:34.683Z,3.20
2018-05-09T20:02:39.404Z,3.50
2018-05-09T20:05:43.492Z,2.97
2018-05-09T20:08:46.888Z,3.07
2018-05-09T20:11:50.205Z,3.37
2018-05-09T20:14:53.549Z,3.33
2018-05-09T20:17:56.878Z,3.77
2018-05-09T20:21:00.209Z,2.90
2018-05-09T20:24:04.376Z,3.10
2018-05-09T20:27:07.709Z,3.40
2018-05-09T20:30:17.308Z,3.20
2018-05-09T20:33:20.668Z,3.63
2018-05-09T20:36:24.885Z,3.40
2018-05-09T20:39:28.233Z,3.33
2018-05-09T20:42:31.585Z,3.47
2018-05-09T20:45:35.023Z,3.47
2018-05-09T20:48:38.417Z,3.37
2018-05-09T20:51:51.613Z,3.50
2018-05-09T20:54:54.939Z,3.93
2018-05-09T20:57:58.344Z,3.87
2018-05-09T21:04:57.369Z,3.87
2018-05-09T21:08:00.687Z,3.93
2018-05-09T21:11:04.030Z,4.47
2018-05-09T21:14:07.350Z,3.83
2018-05-09T21:17:10.690Z,3.90
2018-05-09T21:20:14.901Z,4.23
2018-05-09T21:23:18.253Z,4.00
2018-05-09T21:26:21.602Z,4.17
2018-05-09T21:29:24.932Z,4.40
2018-05-09T21:32:28.357Z,4.67
2018-05-09T21:35:31.756Z,4.40
2018-05-09T21:38:35.153Z,4.70
2018-05-09T21:41:38.534Z,5.33
2018-05-09T21:44:41.940Z,4.63
2018-05-09T21:47:45.285Z,5.47
2018-05-09T21:50:49.452Z,4.80
2018-05-09T21:53:52.806Z,4.90
2018-05-09T21:56:56.150Z,4.90
2018-05-09T21:59:59.537Z,5.03
2018-05-09T22:03:02.946Z,4.73
2018-05-09T22:06:06.348Z,4.83
2018-05-09T22:09:09.660Z,5.43
2018-05-09T22:12:13.036Z,4.80
2018-05-09T22:15:16.345Z,5.17
2018-05-09T22:18:19.741Z,4.90
2018-05-09T22:21:23.058Z,5.40
2018-05-09T22:24:27.173Z,5.27
2018-05-09T22:27:31.268Z,5.40
2018-05-09T22:30:34.649Z,5.30
2018-05-09T22:33:38.149Z,5.47
2018-05-09T22:36:41.623Z,5.30
2018-05-09T22:39:45.315Z,5.60
2018-05-09T22:42:48.684Z,5.43
2018-05-09T22:45:53.052Z,5.60
2018-05-09T22:48:56.732Z,6.17
2018-05-09T22:52:01.529Z,5.70
2018-05-09T22:55:05.985Z,5.83
2018-05-09T22:58:09.460Z,5.90
2018-05-09T23:01:13.905Z,5.93
2018-05-09T23:04:17.312Z,6.07
2018-05-09T23:07:20.975Z,5.87
2018-05-09T23:10:25.117Z,5.83
2018-05-09T23:13:28.458Z,6.77
2018-05-09T23:16:31.784Z,6.50
2018-05-09T23:19:35.163Z,7.40
2018-05-09T23:22:38.544Z,7.03
2018-05-09T23:25:41.936Z,7.20
2018-05-09T23:28:45.245Z,7.23
2018-05-09T23:31:48.647Z,6.83
2018-05-09T23:34:52.064Z,5.93
2018-05-09T23:37:55.403Z,7.40
2018-05-09T23:40:58.734Z,7.30
2018-05-09T23:44:02.082Z,7.10
2018-05-09T23:47:05.429Z,7.60
2018-05-09T23:50:08.821Z,7.30
2018-05-09T23:53:12.222Z,7.23
2018-05-09T23:56:15.581Z,7.73
2018-05-09T23:59:18.904Z,7.50
